Aberdeen, SD - Weather Station Data
Daily Summary for May 15, 2019 Units:  Metric    English   Both
Daily Weekly Monthly Yearly Custom
  High: Low: Average:
Temperature: 27.8 °C 11.1 °C 21.1 °C
Dew Point: 16.1 °C 5.6 °C 10.7 °C
Humidity: 76% 35% 53%
Wind Speed: 37km/h 0km/h 8.5km/h
Wind Gust: 40.2km/h - -
Wind- - SSE
Pressure: 1013.1 hPa 999.9 hPa -
Precipitation: 0 mm    
Historical Graphs
 
 
Tabular Data for May 15, 2019
Time Temperature Dew Point Pressure Wind Wind Speed Wind Gust Humidity Rainfall Rate (Hourly) solar
01:00 16.7 °C 8.9 °C 1012.1 hPa NE 6.4 km/h 11.3 km/h 61% 0 mm 0 W/m2
01:15 16.1 °C 9.4 °C 1012.1 hPa Calm   9.7 km/h 64% 0 mm 0 W/m2
01:30 16.1 °C 8.9 °C 1012.1 hPa NE 9.7 km/h 17.7 km/h 64% 0 mm 0 W/m2
01:45 16.1 °C 8.9 °C 1012.4 hPa NE 4.8 km/h 16.1 km/h 64% 0 mm 0 W/m2
02:00 15.6 °C 8.9 °C 1012.8 hPa NE 9.7 km/h 9.7 km/h 64% 0 mm 0 W/m2
02:15 15.6 °C 8.9 °C 1012.8 hPa NE 6.4 km/h 11.3 km/h 64% 0 mm 0 W/m2
02:30 15.6 °C 8.3 °C 1012.8 hPa NE 6.4 km/h 16.1 km/h 63% 0 mm 0 W/m2
02:45 15 °C 8.3 °C 1012.8 hPa NE 9.7 km/h 14.5 km/h 63% 0 mm 0 W/m2
03:00 15 °C 7.8 °C 1012.8 hPa NE 3.2 km/h 11.3 km/h 64% 0 mm 0 W/m2
03:15 14.4 °C 7.8 °C 1012.8 hPa NE 6.4 km/h 11.3 km/h 64% 0 mm 0 W/m2
03:30 14.4 °C 7.2 °C 1012.8 hPa NE 4.8 km/h 11.3 km/h 63% 0 mm 0 W/m2
03:45 14.4 °C 6.7 °C 1012.8 hPa Calm   11.3 km/h 61% 0 mm 0 W/m2
04:00 13.9 °C 6.1 °C 1012.8 hPa ENE 4.8 km/h 8 km/h 60% 0 mm 0 W/m2
04:15 13.9 °C 5.6 °C 1013.1 hPa Calm   9.7 km/h 58% 0 mm 0 W/m2
04:30 13.3 °C 5.6 °C 1012.8 hPa ENE 3.2 km/h 6.4 km/h 59% 0 mm 0 W/m2
04:45 13.3 °C 5.6 °C 1012.8 hPa Calm   6.4 km/h 60% 0 mm 0 W/m2
05:00 13.3 °C 5.6 °C 1012.8 hPa Calm   3.2 km/h 61% 0 mm 0 W/m2
05:15 12.8 °C 5.6 °C 1012.8 hPa Calm   1.6 km/h 62% 0 mm 0 W/m2
05:30 12.2 °C 5.6 °C 1012.8 hPa Calm   3.2 km/h 63% 0 mm 0 W/m2
05:45 12.2 °C 5.6 °C 1012.8 hPa Calm   3.2 km/h 63% 0 mm 0 W/m2
06:00 12.2 °C 5.6 °C 1012.8 hPa Calm   4.8 km/h 64% 0 mm 0 W/m2
06:15 12.2 °C 5.6 °C 1012.8 hPa Calm   6.4 km/h 65% 0 mm 0 W/m2
06:30 12.2 °C 6.1 °C 1012.4 hPa ENE 1.6 km/h 6.4 km/h 66% 0 mm 0 W/m2
06:45 12.2 °C 6.1 °C 1012.4 hPa Calm   6.4 km/h 67% 0 mm 0 W/m2
07:00 11.7 °C 6.1 °C 1012.8 hPa Calm   1.6 km/h 68% 0 mm 0 W/m2
07:15 11.1 °C 5.6 °C 1012.8 hPa Calm     69% 0 mm 9 W/m2
07:30 11.1 °C 6.1 °C 1012.8 hPa Calm   1.6 km/h 72% 0 mm 16 W/m2
07:45 11.1 °C 6.1 °C 1012.8 hPa Calm     73% 0 mm 28 W/m2
08:00 11.1 °C 6.7 °C 1012.4 hPa Calm   1.6 km/h 74% 0 mm 39 W/m2
08:15 11.7 °C 7.8 °C 1012.4 hPa ENE 4.8 km/h 6.4 km/h 76% 0 mm 109 W/m2
08:30 13.3 °C 8.3 °C 1012.4 hPa ENE 4.8 km/h 6.4 km/h 73% 0 mm 160 W/m2
08:45 14.4 °C 9.4 °C 1012.1 hPa Calm   8 km/h 72% 0 mm 209 W/m2
09:00 15.6 °C 10 °C 1011.7 hPa ESE 1.6 km/h 9.7 km/h 70% 0 mm 255 W/m2
09:15 16.7 °C 10 °C 1011.7 hPa SE 8 km/h 12.9 km/h 66% 0 mm 302 W/m2
09:30 17.8 °C 8.9 °C 1011.7 hPa SE 11.3 km/h 17.7 km/h 57% 0 mm 346 W/m2
09:45 18.3 °C 8.3 °C 1011.7 hPa SE 8 km/h 20.9 km/h 53% 0 mm 394 W/m2
10:00 19.4 °C 8.3 °C 1011.7 hPa SE 8 km/h 24.1 km/h 50% 0 mm 439 W/m2
10:15 20 °C 7.8 °C 1011.4 hPa SE 11.3 km/h 19.3 km/h 45% 0 mm 483 W/m2
10:30 20.6 °C 7.8 °C 1011.7 hPa SSE 8 km/h 22.5 km/h 44% 0 mm 522 W/m2
10:45 21.1 °C 7.2 °C 1011.4 hPa ESE 6.4 km/h 20.9 km/h 41% 0 mm 559 W/m2
11:00 21.7 °C 8.9 °C 1011.4 hPa ESE 4.8 km/h 22.5 km/h 44% 0 mm 599 W/m2
11:15 22.2 °C 7.8 °C 1011.1 hPa ESE 12.9 km/h 22.5 km/h 40% 0 mm 613 W/m2
11:30 22.8 °C 7.2 °C 1011.1 hPa SE 11.3 km/h 24.1 km/h 37% 0 mm 654 W/m2
11:45 22.8 °C 7.2 °C 1010.7 hPa SE 6.4 km/h 24.1 km/h 37% 0 mm 705 W/m2
12:00 23.9 °C 7.2 °C 1010.7 hPa SSE 9.7 km/h 24.1 km/h 35% 0 mm 733 W/m2
12:15 23.9 °C 7.8 °C 1010.4 hPa SSE 8 km/h 19.3 km/h 35% 0 mm 738 W/m2
12:30 24.4 °C 7.8 °C 1010 hPa SE 17.7 km/h 22.5 km/h 35% 0 mm 780 W/m2
12:45 25 °C 8.9 °C 1009.7 hPa SSE 12.9 km/h 22.5 km/h 37% 0 mm 742 W/m2
13:00 25 °C 10 °C 1009.7 hPa SE 6.4 km/h 22.5 km/h 38% 0 mm 830 W/m2
13:15 25 °C 10 °C 1009.4 hPa SE 4.8 km/h 25.7 km/h 39% 0 mm 844 W/m2
13:30 25.6 °C 10.6 °C 1009.4 hPa SSE 14.5 km/h 27.4 km/h 39% 0 mm 837 W/m2
13:45 26.1 °C 10.6 °C 1009 hPa ESE 16.1 km/h 24.1 km/h 38% 0 mm 874 W/m2
14:00 26.1 °C 11.7 °C 1008.7 hPa SSE 8 km/h 27.4 km/h 40% 0 mm 860 W/m2
14:15 26.1 °C 11.7 °C 1008.7 hPa SSE 14.5 km/h 27.4 km/h 40% 0 mm 872 W/m2
14:30 26.7 °C 11.1 °C 1008 hPa South 14.5 km/h 24.1 km/h 39% 0 mm 881 W/m2
14:45 26.7 °C 12.2 °C 1007.7 hPa South 8 km/h 25.7 km/h 40% 0 mm 872 W/m2
15:00 27.2 °C 12.8 °C 1007.3 hPa SSE 14.5 km/h 22.5 km/h 41% 0 mm 833 W/m2
15:15 27.2 °C 12.8 °C 1007 hPa South 37 km/h 37 km/h 41% 0 mm 847 W/m2
15:30 27.2 °C 13.3 °C 1006.7 hPa SSW 11.3 km/h 33.8 km/h 42% 0 mm 856 W/m2
15:45 27.8 °C 12.2 °C 1006.3 hPa SSW 14.5 km/h 25.7 km/h 39% 0 mm 831 W/m2
16:00 27.8 °C 12.8 °C 1006 hPa SSW 22.5 km/h 40.2 km/h 40% 0 mm 807 W/m2
16:15 27.8 °C 13.3 °C 1006 hPa SSE 9.7 km/h 32.2 km/h 41% 0 mm 733 W/m2
16:30 27.8 °C 13.9 °C 1005.3 hPa South 19.3 km/h 29 km/h 43% 0 mm 745 W/m2
16:45 27.2 °C 13.3 °C 1005.3 hPa SSW 16.1 km/h 38.6 km/h 42% 0 mm 619 W/m2
17:00 27.2 °C 13.3 °C 1005.3 hPa SW 8 km/h 32.2 km/h 43% 0 mm 408 W/m2
17:15 27.2 °C 13.9 °C 1005 hPa SSE 11.3 km/h 32.2 km/h 44% 0 mm 599 W/m2
17:30 27.8 °C 13.9 °C 1004.6 hPa SSE 8 km/h 33.8 km/h 43% 0 mm 218 W/m2
17:45 27.8 °C 15 °C 1004.3 hPa SSE 9.7 km/h 33.8 km/h 45% 0 mm 615 W/m2
18:00 27.8 °C 14.4 °C 1003.9 hPa SW 11.3 km/h 40.2 km/h 44% 0 mm 582 W/m2
18:15 27.8 °C 15 °C 1003.6 hPa South 16.1 km/h 33.8 km/h 46% 0 mm 529 W/m2
18:30 27.8 °C 15 °C 1003.3 hPa SSW 20.9 km/h 27.4 km/h 46% 0 mm 496 W/m2
18:45 27.8 °C 15.6 °C 1002.9 hPa South 24.1 km/h 40.2 km/h 47% 0 mm 401 W/m2
19:00 27.8 °C 15.6 °C 1002.9 hPa SSE 17.7 km/h 35.4 km/h 47% 0 mm 388 W/m2
19:15 27.2 °C 15 °C 1002.6 hPa SSW 11.3 km/h 33.8 km/h 47% 0 mm 174 W/m2
19:30 27.2 °C 15 °C 1002.6 hPa SSE 20.9 km/h 32.2 km/h 48% 0 mm 318 W/m2
19:45 27.8 °C 15 °C 1002.6 hPa SSE 25.7 km/h 33.8 km/h 47% 0 mm 311 W/m2
20:00 27.8 °C 14.4 °C 1002.3 hPa SW 17.7 km/h 32.2 km/h 45% 0 mm 105 W/m2
20:15 27.2 °C 14.4 °C 1001.9 hPa SW 22.5 km/h 30.6 km/h 46% 0 mm 98 W/m2
20:30 27.2 °C 15 °C 1001.6 hPa South 6.4 km/h 25.7 km/h 47% 0 mm 102 W/m2
20:45 27.2 °C 15.6 °C 1001.6 hPa SSW 8 km/h 22.5 km/h 49% 0 mm 98 W/m2
21:00 27.2 °C 15.6 °C 1001.2 hPa SSE 8 km/h 19.3 km/h 50% 0 mm 76 W/m2
21:15 26.7 °C 15.6 °C 1001.2 hPa SSE 12.9 km/h 17.7 km/h 51% 0 mm 54 W/m2
21:30 26.1 °C 16.1 °C 1001.2 hPa South 4.8 km/h 12.9 km/h 53% 0 mm 28 W/m2
21:45 25.6 °C 15.6 °C 1000.6 hPa SE 3.2 km/h 14.5 km/h 55% 0 mm 5 W/m2
22:00 25 °C 15.6 °C 1000.6 hPa South 1.6 km/h 14.5 km/h 56% 0 mm 0 W/m2
22:15 24.4 °C 15 °C 1000.6 hPa South 8 km/h 12.9 km/h 57% 0 mm 0 W/m2
22:30 23.9 °C 15 °C 1000.2 hPa Calm   9.7 km/h 58% 0 mm 0 W/m2
22:45 23.3 °C 15 °C 999.9 hPa SSW 4.8 km/h 12.9 km/h 60% 0 mm 0 W/m2
23:00 22.8 °C 15 °C 1000.2 hPa SSW 11.3 km/h 20.9 km/h 61% 0 mm 0 W/m2
23:15 23.3 °C 15 °C 1000.6 hPa SW 8 km/h 19.3 km/h 60% 0 mm 0 W/m2
23:30 23.3 °C 15.6 °C 1000.6 hPa SSW 9.7 km/h 25.7 km/h 61% 0 mm 0 W/m2
23:45 23.3 °C 15.6 °C 1000.9 hPa SSW 12.9 km/h 19.3 km/h 61% 0 mm 0 W/m2
00:00 23.3 °C 15.6 °C 1001.2 hPa SSW 14.5 km/h 24.1 km/h 61% 0 mm 0 W/m2
00:15 23.3 °C 15.6 °C 1001.9 hPa SW 9.7 km/h 25.7 km/h 63% 0 mm 0 W/m2
00:30 22.8 °C 15.6 °C 1001.9 hPa West 3.2 km/h 25.7 km/h 64% 0 mm 0 W/m2
00:45 22.8 °C 15 °C 1001.9 hPa SE 1.6 km/h 12.9 km/h 62% 0 mm 0 W/m2
Compliments of Weather Underground - 2 mb